Terminal Aerodrome Forecast
Issued by NWS Mt. Holly, NJ

Home | Current Version | Previous Version | Text Only | Print | Product List | Glossary On
Versions: 1 2 3 4 5 6 7 8 9 10 11 12 13 14 15 16 17 18 19 20 21 22 23 24 25 26 27 28 29 30 31 32 33 34 35 36
000
FTAK31 PANC 011740
TAFABE
TAF
PABE 011740Z 0118/0218 12020G30KT P6SM -RA SCT025 OVC080
      WS020/14060KT
     FM012000 13025G35KT 6SM -RA OVC025
     FM020200 16013G20KT 4SM -SHRA BR BKN012 OVC020
     FM020500 23015G22KT 2SM -SHRA BR BKN012 OVC020
     FM021300 22012KT P6SM VCSH SCT010 OVC025=

USA.gov is the U.S. government's official web portal to all federal, state and local government web resources and services.